sensor_id;sensor_type;location;lat;lon;timestamp;P1;durP1;ratioP1;P2;durP2;ratioP2
55794;SDS011;41716;51.910;4.430;2023-05-17T00:03:39;6.93;;;1.75;;
55794;SDS011;41716;51.910;4.430;2023-05-17T00:08:41;4.93;;;1.52;;
55794;SDS011;41716;51.910;4.430;2023-05-17T00:13:44;6.72;;;2.03;;
55794;SDS011;41716;51.910;4.430;2023-05-17T00:18:45;6.55;;;1.95;;
55794;SDS011;41716;51.910;4.430;2023-05-17T00:23:47;9.27;;;1.70;;
55794;SDS011;41716;51.910;4.430;2023-05-17T00:28:50;5.90;;;1.70;;
55794;SDS011;41716;51.910;4.430;2023-05-17T00:33:52;9.27;;;2.07;;
55794;SDS011;41716;51.910;4.430;2023-05-17T00:38:53;7.03;;;1.75;;
55794;SDS011;41716;51.910;4.430;2023-05-17T00:43:56;10.25;;;2.20;;
55794;SDS011;41716;51.910;4.430;2023-05-17T00:48:58;9.10;;;1.75;;
55794;SDS011;41716;51.910;4.430;2023-05-17T00:54:00;8.82;;;2.20;;
55794;SDS011;41716;51.910;4.430;2023-05-17T00:59:05;8.70;;;1.90;;
55794;SDS011;41716;51.910;4.430;2023-05-17T01:04:07;7.32;;;1.88;;
55794;SDS011;41716;51.910;4.430;2023-05-17T01:09:09;8.00;;;2.00;;
55794;SDS011;41716;51.910;4.430;2023-05-17T01:14:15;8.23;;;1.83;;
55794;SDS011;41716;51.910;4.430;2023-05-17T01:19:35;7.95;;;1.90;;
55794;SDS011;41716;51.910;4.430;2023-05-17T01:24:49;8.65;;;2.20;;
55794;SDS011;41716;51.910;4.430;2023-05-17T01:30:02;11.02;;;1.70;;
55794;SDS011;41716;51.910;4.430;2023-05-17T01:35:05;7.45;;;1.65;;
55794;SDS011;41716;51.910;4.430;2023-05-17T01:40:07;5.93;;;1.60;;
55794;SDS011;41716;51.910;4.430;2023-05-17T01:45:14;6.23;;;1.80;;
55794;SDS011;41716;51.910;4.430;2023-05-17T01:50:21;9.77;;;2.13;;
55794;SDS011;41716;51.910;4.430;2023-05-17T01:55:25;6.57;;;1.83;;
55794;SDS011;41716;51.910;4.430;2023-05-17T02:00:34;8.70;;;1.92;;
55794;SDS011;41716;51.910;4.430;2023-05-17T02:05:38;7.07;;;1.55;;
55794;SDS011;41716;51.910;4.430;2023-05-17T02:10:40;7.95;;;1.80;;
55794;SDS011;41716;51.910;4.430;2023-05-17T02:15:43;7.05;;;1.70;;
55794;SDS011;41716;51.910;4.430;2023-05-17T02:20:44;7.15;;;1.75;;
55794;SDS011;41716;51.910;4.430;2023-05-17T02:25:46;11.07;;;2.25;;
55794;SDS011;41716;51.910;4.430;2023-05-17T02:30:49;8.25;;;2.00;;
55794;SDS011;41716;51.910;4.430;2023-05-17T02:40:53;10.65;;;2.33;;
55794;SDS011;41716;51.910;4.430;2023-05-17T02:45:56;7.50;;;1.75;;
55794;SDS011;41716;51.910;4.430;2023-05-17T02:50:58;6.65;;;1.23;;
55794;SDS011;41716;51.910;4.430;2023-05-17T02:55:59;7.20;;;1.73;;
55794;SDS011;41716;51.910;4.430;2023-05-17T03:01:02;10.40;;;2.03;;
55794;SDS011;41716;51.910;4.430;2023-05-17T03:06:04;5.73;;;1.40;;
55794;SDS011;41716;51.910;4.430;2023-05-17T03:11:06;7.05;;;2.17;;
55794;SDS011;41716;51.910;4.430;2023-05-17T03:16:09;6.43;;;1.58;;
55794;SDS011;41716;51.910;4.430;2023-05-17T03:21:10;6.47;;;1.73;;
55794;SDS011;41716;51.910;4.430;2023-05-17T03:26:12;6.25;;;1.80;;
55794;SDS011;41716;51.910;4.430;2023-05-17T03:31:15;6.00;;;1.83;;
55794;SDS011;41716;51.910;4.430;2023-05-17T03:36:17;6.40;;;1.75;;
55794;SDS011;41716;51.910;4.430;2023-05-17T03:41:19;9.32;;;1.80;;
55794;SDS011;41716;51.910;4.430;2023-05-17T03:46:22;8.70;;;1.88;;
55794;SDS011;41716;51.910;4.430;2023-05-17T03:51:24;8.60;;;2.10;;
55794;SDS011;41716;51.910;4.430;2023-05-17T03:56:26;8.00;;;1.67;;
55794;SDS011;41716;51.910;4.430;2023-05-17T04:01:29;6.53;;;1.50;;
55794;SDS011;41716;51.910;4.430;2023-05-17T04:06:30;4.88;;;1.40;;
55794;SDS011;41716;51.910;4.430;2023-05-17T04:11:32;7.72;;;1.30;;
55794;SDS011;41716;51.910;4.430;2023-05-17T04:16:35;5.78;;;1.38;;
55794;SDS011;41716;51.910;4.430;2023-05-17T04:21:37;8.80;;;1.90;;
55794;SDS011;41716;51.910;4.430;2023-05-17T04:26:39;7.43;;;1.98;;
55794;SDS011;41716;51.910;4.430;2023-05-17T04:31:42;7.85;;;1.50;;
55794;SDS011;41716;51.910;4.430;2023-05-17T04:36:43;9.15;;;1.95;;
55794;SDS011;41716;51.910;4.430;2023-05-17T04:41:45;9.07;;;1.48;;
55794;SDS011;41716;51.910;4.430;2023-05-17T04:46:48;7.95;;;1.75;;
55794;SDS011;41716;51.910;4.430;2023-05-17T04:51:51;5.28;;;1.30;;
55794;SDS011;41716;51.910;4.430;2023-05-17T04:56:52;6.10;;;1.20;;
55794;SDS011;41716;51.910;4.430;2023-05-17T05:01:55;6.45;;;1.23;;
55794;SDS011;41716;51.910;4.430;2023-05-17T05:06:57;5.32;;;0.95;;
55794;SDS011;41716;51.910;4.430;2023-05-17T05:11:58;3.00;;;1.00;;
55794;SDS011;41716;51.910;4.430;2023-05-17T05:17:01;7.68;;;1.27;;
55794;SDS011;41716;51.910;4.430;2023-05-17T05:22:04;5.00;;;0.93;;
55794;SDS011;41716;51.910;4.430;2023-05-17T05:27:05;6.13;;;1.50;;
55794;SDS011;41716;51.910;4.430;2023-05-17T05:32:08;5.68;;;1.20;;
55794;SDS011;41716;51.910;4.430;2023-05-17T05:37:10;6.95;;;1.33;;
55794;SDS011;41716;51.910;4.430;2023-05-17T05:42:12;5.53;;;1.30;;
55794;SDS011;41716;51.910;4.430;2023-05-17T05:47:16;10.27;;;2.05;;
55794;SDS011;41716;51.910;4.430;2023-05-17T05:52:18;4.80;;;1.10;;
55794;SDS011;41716;51.910;4.430;2023-05-17T05:57:20;5.53;;;1.00;;
55794;SDS011;41716;51.910;4.430;2023-05-17T06:02:23;9.32;;;1.20;;
55794;SDS011;41716;51.910;4.430;2023-05-17T06:07:25;6.18;;;1.20;;
55794;SDS011;41716;51.910;4.430;2023-05-17T06:12:27;5.78;;;1.00;;
55794;SDS011;41716;51.910;4.430;2023-05-17T06:17:30;9.30;;;1.42;;
55794;SDS011;41716;51.910;4.430;2023-05-17T06:22:31;9.10;;;1.63;;
55794;SDS011;41716;51.910;4.430;2023-05-17T06:27:33;6.43;;;1.08;;
55794;SDS011;41716;51.910;4.430;2023-05-17T06:32:36;5.95;;;0.80;;
55794;SDS011;41716;51.910;4.430;2023-05-17T06:37:38;5.13;;;1.00;;
55794;SDS011;41716;51.910;4.430;2023-05-17T06:42:39;6.85;;;1.25;;
55794;SDS011;41716;51.910;4.430;2023-05-17T06:47:42;5.65;;;1.10;;
55794;SDS011;41716;51.910;4.430;2023-05-17T06:52:44;6.28;;;1.08;;
55794;SDS011;41716;51.910;4.430;2023-05-17T06:57:46;4.18;;;0.98;;
55794;SDS011;41716;51.910;4.430;2023-05-17T07:02:49;5.07;;;0.90;;
55794;SDS011;41716;51.910;4.430;2023-05-17T07:07:51;5.63;;;0.80;;
55794;SDS011;41716;51.910;4.430;2023-05-17T07:12:52;3.95;;;0.70;;
55794;SDS011;41716;51.910;4.430;2023-05-17T07:17:56;3.38;;;0.70;;
55794;SDS011;41716;51.910;4.430;2023-05-17T07:22:58;2.90;;;0.93;;
55794;SDS011;41716;51.910;4.430;2023-05-17T07:27:59;5.43;;;0.85;;
55794;SDS011;41716;51.910;4.430;2023-05-17T07:33:03;11.43;;;1.35;;
55794;SDS011;41716;51.910;4.430;2023-05-17T07:38:04;4.30;;;1.10;;
55794;SDS011;41716;51.910;4.430;2023-05-17T07:43:06;5.72;;;0.95;;
55794;SDS011;41716;51.910;4.430;2023-05-17T07:48:09;3.35;;;0.80;;
55794;SDS011;41716;51.910;4.430;2023-05-17T07:53:11;5.13;;;1.20;;
55794;SDS011;41716;51.910;4.430;2023-05-17T07:58:13;6.03;;;1.23;;
55794;SDS011;41716;51.910;4.430;2023-05-17T08:03:16;7.28;;;1.20;;
55794;SDS011;41716;51.910;4.430;2023-05-17T08:08:17;4.80;;;1.42;;
55794;SDS011;41716;51.910;4.430;2023-05-17T08:13:20;4.60;;;0.82;;
55794;SDS011;41716;51.910;4.430;2023-05-17T08:18:23;7.80;;;1.02;;
55794;SDS011;41716;51.910;4.430;2023-05-17T08:28:28;6.18;;;0.75;;
55794;SDS011;41716;51.910;4.430;2023-05-17T08:33:31;6.18;;;1.05;;
55794;SDS011;41716;51.910;4.430;2023-05-17T08:38:33;6.57;;;0.82;;
55794;SDS011;41716;51.910;4.430;2023-05-17T08:43:35;4.32;;;0.80;;
55794;SDS011;41716;51.910;4.430;2023-05-17T08:48:38;5.60;;;0.93;;
55794;SDS011;41716;51.910;4.430;2023-05-17T08:53:42;5.95;;;0.93;;
55794;SDS011;41716;51.910;4.430;2023-05-17T08:58:46;4.30;;;0.70;;
55794;SDS011;41716;51.910;4.430;2023-05-17T09:03:53;3.45;;;0.63;;
55794;SDS011;41716;51.910;4.430;2023-05-17T09:08:55;5.70;;;1.00;;
55794;SDS011;41716;51.910;4.430;2023-05-17T09:14:00;2.20;;;0.50;;
55794;SDS011;41716;51.910;4.430;2023-05-17T09:19:05;3.03;;;0.45;;
55794;SDS011;41716;51.910;4.430;2023-05-17T09:24:08;3.97;;;0.80;;
55794;SDS011;41716;51.910;4.430;2023-05-17T09:29:10;4.10;;;0.50;;
55794;SDS011;41716;51.910;4.430;2023-05-17T09:34:14;3.88;;;0.47;;
55794;SDS011;41716;51.910;4.430;2023-05-17T09:39:18;1.25;;;0.30;;
55794;SDS011;41716;51.910;4.430;2023-05-17T09:44:21;6.95;;;0.80;;
55794;SDS011;41716;51.910;4.430;2023-05-17T09:49:26;2.72;;;0.60;;
55794;SDS011;41716;51.910;4.430;2023-05-17T09:54:30;3.33;;;0.40;;
55794;SDS011;41716;51.910;4.430;2023-05-17T09:59:33;4.45;;;0.75;;
55794;SDS011;41716;51.910;4.430;2023-05-17T10:04:36;3.70;;;0.60;;
55794;SDS011;41716;51.910;4.430;2023-05-17T10:09:38;4.65;;;0.70;;
55794;SDS011;41716;51.910;4.430;2023-05-17T10:14:41;4.82;;;0.50;;
55794;SDS011;41716;51.910;4.430;2023-05-17T10:19:45;3.50;;;0.55;;
55794;SDS011;41716;51.910;4.430;2023-05-17T10:24:48;3.85;;;0.47;;
55794;SDS011;41716;51.910;4.430;2023-05-17T10:29:50;2.17;;;0.70;;
55794;SDS011;41716;51.910;4.430;2023-05-17T10:34:55;3.72;;;0.50;;
55794;SDS011;41716;51.910;4.430;2023-05-17T10:40:00;2.42;;;0.52;;
55794;SDS011;41716;51.910;4.430;2023-05-17T10:45:02;3.78;;;0.90;;
55794;SDS011;41716;51.910;4.430;2023-05-17T10:50:09;4.50;;;0.95;;
55794;SDS011;41716;51.910;4.430;2023-05-17T10:55:17;5.53;;;1.70;;
55794;SDS011;41716;51.910;4.430;2023-05-17T11:00:19;2.55;;;0.45;;
55794;SDS011;41716;51.910;4.430;2023-05-17T11:05:27;3.22;;;0.60;;
55794;SDS011;41716;51.910;4.430;2023-05-17T11:10:29;4.17;;;0.50;;
55794;SDS011;41716;51.910;4.430;2023-05-17T11:15:31;2.65;;;0.50;;
55794;SDS011;41716;51.910;4.430;2023-05-17T11:20:34;3.10;;;0.60;;
55794;SDS011;41716;51.910;4.430;2023-05-17T11:25:36;2.97;;;0.43;;
55794;SDS011;41716;51.910;4.430;2023-05-17T11:30:40;3.50;;;0.70;;
55794;SDS011;41716;51.910;4.430;2023-05-17T11:35:51;3.33;;;0.50;;
55794;SDS011;41716;51.910;4.430;2023-05-17T11:40:55;4.22;;;0.52;;
55794;SDS011;41716;51.910;4.430;2023-05-17T11:45:57;5.13;;;0.73;;
55794;SDS011;41716;51.910;4.430;2023-05-17T11:51:02;4.35;;;0.65;;
55794;SDS011;41716;51.910;4.430;2023-05-17T11:56:05;6.70;;;1.20;;
55794;SDS011;41716;51.910;4.430;2023-05-17T12:01:08;5.53;;;0.55;;
55794;SDS011;41716;51.910;4.430;2023-05-17T12:06:12;5.57;;;0.60;;
55794;SDS011;41716;51.910;4.430;2023-05-17T12:11:17;4.35;;;0.75;;
55794;SDS011;41716;51.910;4.430;2023-05-17T12:16:20;4.30;;;0.85;;
55794;SDS011;41716;51.910;4.430;2023-05-17T12:21:23;4.90;;;0.70;;
55794;SDS011;41716;51.910;4.430;2023-05-17T12:26:25;5.53;;;0.70;;
55794;SDS011;41716;51.910;4.430;2023-05-17T12:31:27;3.88;;;0.47;;
55794;SDS011;41716;51.910;4.430;2023-05-17T12:36:32;3.00;;;0.60;;
55794;SDS011;41716;51.910;4.430;2023-05-17T12:41:36;4.50;;;0.80;;
55794;SDS011;41716;51.910;4.430;2023-05-17T12:46:38;3.92;;;0.77;;
55794;SDS011;41716;51.910;4.430;2023-05-17T12:51:42;5.43;;;0.90;;
55794;SDS011;41716;51.910;4.430;2023-05-17T12:56:44;3.03;;;0.47;;
55794;SDS011;41716;51.910;4.430;2023-05-17T13:01:46;5.50;;;0.60;;
55794;SDS011;41716;51.910;4.430;2023-05-17T13:06:52;4.10;;;0.60;;
55794;SDS011;41716;51.910;4.430;2023-05-17T13:11:55;2.28;;;0.40;;
55794;SDS011;41716;51.910;4.430;2023-05-17T13:16:57;6.10;;;0.90;;
55794;SDS011;41716;51.910;4.430;2023-05-17T13:22:00;3.80;;;0.82;;
55794;SDS011;41716;51.910;4.430;2023-05-17T13:27:02;3.37;;;0.70;;
55794;SDS011;41716;51.910;4.430;2023-05-17T13:32:05;3.50;;;0.73;;
55794;SDS011;41716;51.910;4.430;2023-05-17T13:37:09;6.75;;;0.82;;
55794;SDS011;41716;51.910;4.430;2023-05-17T13:42:10;4.10;;;0.90;;
55794;SDS011;41716;51.910;4.430;2023-05-17T13:47:12;5.20;;;0.88;;
55794;SDS011;41716;51.910;4.430;2023-05-17T13:52:16;2.97;;;0.80;;
55794;SDS011;41716;51.910;4.430;2023-05-17T13:57:17;3.93;;;0.63;;
55794;SDS011;41716;51.910;4.430;2023-05-17T14:02:19;3.65;;;0.88;;
55794;SDS011;41716;51.910;4.430;2023-05-17T14:07:22;5.68;;;0.82;;
55794;SDS011;41716;51.910;4.430;2023-05-17T14:12:24;3.23;;;0.80;;
55794;SDS011;41716;51.910;4.430;2023-05-17T14:17:25;7.47;;;0.73;;
55794;SDS011;41716;51.910;4.430;2023-05-17T14:22:28;4.50;;;0.80;;
55794;SDS011;41716;51.910;4.430;2023-05-17T14:27:30;2.07;;;0.70;;
55794;SDS011;41716;51.910;4.430;2023-05-17T14:32:32;5.35;;;0.68;;
55794;SDS011;41716;51.910;4.430;2023-05-17T14:37:36;5.50;;;0.70;;
55794;SDS011;41716;51.910;4.430;2023-05-17T14:42:38;4.50;;;1.03;;
55794;SDS011;41716;51.910;4.430;2023-05-17T14:47:40;2.50;;;0.52;;
55794;SDS011;41716;51.910;4.430;2023-05-17T14:52:43;3.92;;;0.90;;
55794;SDS011;41716;51.910;4.430;2023-05-17T14:57:45;5.83;;;1.00;;
55794;SDS011;41716;51.910;4.430;2023-05-17T15:02:49;5.47;;;0.80;;
55794;SDS011;41716;51.910;4.430;2023-05-17T15:07:52;4.28;;;1.10;;
55794;SDS011;41716;51.910;4.430;2023-05-17T15:12:54;5.73;;;0.80;;
55794;SDS011;41716;51.910;4.430;2023-05-17T15:17:55;5.93;;;1.08;;
55794;SDS011;41716;51.910;4.430;2023-05-17T15:22:59;3.67;;;0.90;;
55794;SDS011;41716;51.910;4.430;2023-05-17T15:28:01;3.47;;;0.80;;
55794;SDS011;41716;51.910;4.430;2023-05-17T15:33:02;4.28;;;0.55;;
55794;SDS011;41716;51.910;4.430;2023-05-17T15:38:05;4.47;;;0.77;;
55794;SDS011;41716;51.910;4.430;2023-05-17T15:43:07;7.27;;;1.13;;
55794;SDS011;41716;51.910;4.430;2023-05-17T15:48:09;3.70;;;0.70;;
55794;SDS011;41716;51.910;4.430;2023-05-17T15:53:13;6.97;;;0.70;;
55794;SDS011;41716;51.910;4.430;2023-05-17T15:58:15;2.60;;;0.87;;
55794;SDS011;41716;51.910;4.430;2023-05-17T16:03:16;5.13;;;0.70;;
55794;SDS011;41716;51.910;4.430;2023-05-17T16:08:19;8.02;;;0.90;;
55794;SDS011;41716;51.910;4.430;2023-05-17T16:13:22;3.95;;;0.90;;
55794;SDS011;41716;51.910;4.430;2023-05-17T16:18:24;4.78;;;0.73;;
55794;SDS011;41716;51.910;4.430;2023-05-17T16:23:27;6.15;;;0.90;;
55794;SDS011;41716;51.910;4.430;2023-05-17T16:28:29;7.88;;;1.40;;
55794;SDS011;41716;51.910;4.430;2023-05-17T16:33:31;5.70;;;1.15;;
55794;SDS011;41716;51.910;4.430;2023-05-17T16:38:34;5.90;;;0.90;;
55794;SDS011;41716;51.910;4.430;2023-05-17T16:43:36;3.97;;;0.80;;
55794;SDS011;41716;51.910;4.430;2023-05-17T16:48:37;5.85;;;1.02;;
55794;SDS011;41716;51.910;4.430;2023-05-17T16:53:41;5.75;;;0.70;;
55794;SDS011;41716;51.910;4.430;2023-05-17T16:58:42;4.07;;;0.80;;
55794;SDS011;41716;51.910;4.430;2023-05-17T17:03:44;5.90;;;0.95;;
55794;SDS011;41716;51.910;4.430;2023-05-17T17:08:47;8.73;;;0.90;;
55794;SDS011;41716;51.910;4.430;2023-05-17T17:13:49;5.90;;;0.80;;
55794;SDS011;41716;51.910;4.430;2023-05-17T17:18:51;6.15;;;1.02;;
55794;SDS011;41716;51.910;4.430;2023-05-17T17:23:55;2.95;;;0.98;;
55794;SDS011;41716;51.910;4.430;2023-05-17T17:33:58;2.95;;;0.90;;
55794;SDS011;41716;51.910;4.430;2023-05-17T17:39:01;5.35;;;0.98;;
55794;SDS011;41716;51.910;4.430;2023-05-17T17:44:03;4.97;;;0.93;;
55794;SDS011;41716;51.910;4.430;2023-05-17T17:49:05;7.80;;;0.90;;
55794;SDS011;41716;51.910;4.430;2023-05-17T17:54:08;4.13;;;1.00;;
55794;SDS011;41716;51.910;4.430;2023-05-17T17:59:10;7.33;;;0.83;;
55794;SDS011;41716;51.910;4.430;2023-05-17T18:04:12;4.47;;;0.85;;
55794;SDS011;41716;51.910;4.430;2023-05-17T18:09:16;6.35;;;0.90;;
55794;SDS011;41716;51.910;4.430;2023-05-17T18:14:18;5.00;;;0.80;;
55794;SDS011;41716;51.910;4.430;2023-05-17T18:19:20;4.60;;;0.93;;
55794;SDS011;41716;51.910;4.430;2023-05-17T18:24:23;4.78;;;0.80;;
55794;SDS011;41716;51.910;4.430;2023-05-17T18:29:25;3.30;;;0.90;;
55794;SDS011;41716;51.910;4.430;2023-05-17T18:34:27;5.28;;;0.70;;
55794;SDS011;41716;51.910;4.430;2023-05-17T18:39:30;5.63;;;1.42;;
55794;SDS011;41716;51.910;4.430;2023-05-17T18:44:31;6.80;;;0.97;;
55794;SDS011;41716;51.910;4.430;2023-05-17T18:49:34;9.30;;;1.30;;
55794;SDS011;41716;51.910;4.430;2023-05-17T18:54:39;5.38;;;0.90;;
55794;SDS011;41716;51.910;4.430;2023-05-17T18:59:40;6.77;;;1.27;;
55794;SDS011;41716;51.910;4.430;2023-05-17T19:04:42;3.75;;;0.98;;
55794;SDS011;41716;51.910;4.430;2023-05-17T19:09:45;5.18;;;1.00;;
55794;SDS011;41716;51.910;4.430;2023-05-17T19:14:47;4.40;;;0.90;;
55794;SDS011;41716;51.910;4.430;2023-05-17T19:19:49;5.18;;;1.00;;
55794;SDS011;41716;51.910;4.430;2023-05-17T19:24:52;4.95;;;0.85;;
55794;SDS011;41716;51.910;4.430;2023-05-17T19:29:53;8.27;;;1.30;;
55794;SDS011;41716;51.910;4.430;2023-05-17T19:34:55;3.35;;;0.80;;
55794;SDS011;41716;51.910;4.430;2023-05-17T19:39:58;7.13;;;1.10;;
55794;SDS011;41716;51.910;4.430;2023-05-17T19:45:00;3.77;;;0.80;;
55794;SDS011;41716;51.910;4.430;2023-05-17T19:50:02;6.47;;;0.93;;
55794;SDS011;41716;51.910;4.430;2023-05-17T19:55:05;4.28;;;1.10;;
55794;SDS011;41716;51.910;4.430;2023-05-17T20:00:07;6.35;;;1.00;;
55794;SDS011;41716;51.910;4.430;2023-05-17T20:05:10;4.80;;;0.98;;
55794;SDS011;41716;51.910;4.430;2023-05-17T20:10:13;7.20;;;1.08;;
55794;SDS011;41716;51.910;4.430;2023-05-17T20:15:14;3.63;;;0.70;;
55794;SDS011;41716;51.910;4.430;2023-05-17T20:20:16;6.43;;;1.13;;
55794;SDS011;41716;51.910;4.430;2023-05-17T20:25:19;9.00;;;1.08;;
55794;SDS011;41716;51.910;4.430;2023-05-17T20:30:21;5.50;;;1.17;;
55794;SDS011;41716;51.910;4.430;2023-05-17T20:35:23;5.78;;;1.20;;
55794;SDS011;41716;51.910;4.430;2023-05-17T20:40:26;7.85;;;1.20;;
55794;SDS011;41716;51.910;4.430;2023-05-17T20:45:28;3.70;;;0.85;;
55794;SDS011;41716;51.910;4.430;2023-05-17T20:50:31;3.92;;;0.90;;
55794;SDS011;41716;51.910;4.430;2023-05-17T20:55:34;5.68;;;1.10;;
55794;SDS011;41716;51.910;4.430;2023-05-17T21:00:36;3.87;;;1.10;;
55794;SDS011;41716;51.910;4.430;2023-05-17T21:05:37;2.92;;;0.85;;
55794;SDS011;41716;51.910;4.430;2023-05-17T21:10:47;4.50;;;1.35;;
55794;SDS011;41716;51.910;4.430;2023-05-17T21:15:49;5.07;;;0.70;;
55794;SDS011;41716;51.910;4.430;2023-05-17T21:20:51;4.68;;;0.80;;
55794;SDS011;41716;51.910;4.430;2023-05-17T21:25:55;4.28;;;1.10;;
55794;SDS011;41716;51.910;4.430;2023-05-17T21:30:57;3.55;;;0.90;;
55794;SDS011;41716;51.910;4.430;2023-05-17T21:35:59;4.20;;;0.75;;
55794;SDS011;41716;51.910;4.430;2023-05-17T21:41:02;4.28;;;0.63;;
55794;SDS011;41716;51.910;4.430;2023-05-17T21:46:04;2.20;;;0.70;;
55794;SDS011;41716;51.910;4.430;2023-05-17T21:51:06;3.70;;;0.82;;
55794;SDS011;41716;51.910;4.430;2023-05-17T21:56:09;9.02;;;0.77;;
55794;SDS011;41716;51.910;4.430;2023-05-17T22:01:11;3.10;;;0.85;;
55794;SDS011;41716;51.910;4.430;2023-05-17T22:06:13;4.38;;;0.82;;
55794;SDS011;41716;51.910;4.430;2023-05-17T22:11:16;3.22;;;1.00;;
55794;SDS011;41716;51.910;4.430;2023-05-17T22:16:21;5.38;;;1.20;;
55794;SDS011;41716;51.910;4.430;2023-05-17T22:21:24;3.72;;;1.08;;
55794;SDS011;41716;51.910;4.430;2023-05-17T22:26:27;5.05;;;0.90;;
55794;SDS011;41716;51.910;4.430;2023-05-17T22:31:29;3.60;;;0.80;;
55794;SDS011;41716;51.910;4.430;2023-05-17T22:36:33;3.65;;;1.08;;
55794;SDS011;41716;51.910;4.430;2023-05-17T22:41:36;2.42;;;0.80;;
55794;SDS011;41716;51.910;4.430;2023-05-17T22:46:37;2.60;;;0.90;;
55794;SDS011;41716;51.910;4.430;2023-05-17T22:51:41;4.60;;;1.02;;
55794;SDS011;41716;51.910;4.430;2023-05-17T22:56:44;5.43;;;0.98;;
55794;SDS011;41716;51.910;4.430;2023-05-17T23:01:45;2.80;;;0.87;;
55794;SDS011;41716;51.910;4.430;2023-05-17T23:06:47;3.78;;;1.00;;
55794;SDS011;41716;51.910;4.430;2023-05-17T23:11:50;5.05;;;1.00;;
55794;SDS011;41716;51.910;4.430;2023-05-17T23:16:53;4.63;;;0.93;;
55794;SDS011;41716;51.910;4.430;2023-05-17T23:21:54;3.97;;;1.00;;
55794;SDS011;41716;51.910;4.430;2023-05-17T23:27:03;3.25;;;0.60;;
55794;SDS011;41716;51.910;4.430;2023-05-17T23:32:08;4.93;;;0.85;;
55794;SDS011;41716;51.910;4.430;2023-05-17T23:37:10;4.78;;;0.90;;
55794;SDS011;41716;51.910;4.430;2023-05-17T23:42:13;3.15;;;1.00;;
55794;SDS011;41716;51.910;4.430;2023-05-17T23:47:15;4.43;;;1.03;;
55794;SDS011;41716;51.910;4.430;2023-05-17T23:52:17;3.85;;;0.68;;
55794;SDS011;41716;51.910;4.430;2023-05-17T23:57:20;4.47;;;0.90;;
